Time;durP1;ratioP1;P1;durP2;ratioP2;P2;SDS_P1;SDS_P2;PMS_P1;PMS_P2;Temp;Humidity;BMP_temperature;BMP_pressure;BME280_temperature;BME280_humidity;BME280_pressure;Samples;Min_cycle;Max_cycle;Signal;HPM_P1;HPM_P2
2021/07/06 00:00:17;;;;;;;16.45;6.90;;;;;;;20.85;100.00;99928.53;1679501;85;21039;-78
2021/07/06 00:02:44;;;;;;;17.30;7.47;;;;;;;20.85;100.00;99934.02;1623222;88;21242;-83
2021/07/06 00:05:11;;;;;;;13.60;6.80;;;;;;;20.86;100.00;99934.80;1623591;88;21073;-78
2021/07/06 00:07:38;;;;;;;13.93;7.15;;;;;;;20.86;100.00;99938.34;1623623;87;21091;-78
2021/07/06 00:10:07;;;;;;;16.05;7.00;;;;;;;20.87;100.00;99938.55;1623246;88;21030;-80
2021/07/06 00:12:33;;;;;;;14.38;6.97;;;;;;;20.86;100.00;99937.55;1623598;88;21521;-79
2021/07/06 00:14:59;;;;;;;15.90;7.05;;;;;;;20.86;100.00;99945.76;1626863;87;20970;-76
2021/07/06 00:17:26;;;;;;;13.22;6.95;;;;;;;20.86;100.00;99943.81;1632443;87;21068;-75
2021/07/06 00:19:51;;;;;;;16.27;7.97;;;;;;;20.85;100.00;99934.56;1632515;87;21885;-78
2021/07/06 00:22:18;;;;;;;15.23;7.00;;;;;;;20.85;100.00;99944.97;1632399;87;20899;-78
2021/07/06 00:24:46;;;;;;;17.57;7.55;;;;;;;20.86;100.00;99941.08;1602476;87;21062;-75
2021/07/06 00:27:12;;;;;;;13.38;6.65;;;;;;;20.86;100.00;99943.81;1629196;87;21113;-78
2021/07/06 00:29:38;;;;;;;14.55;7.17;;;;;;;20.88;100.00;99946.19;1632280;87;21635;-77
2021/07/06 00:32:05;;;;;;;23.05;7.25;;;;;;;20.90;100.00;99948.60;1629079;87;21649;-84
2021/07/06 00:34:31;;;;;;;15.53;7.20;;;;;;;20.90;100.00;99942.55;1632481;87;21014;-78
2021/07/06 00:36:57;;;;;;;14.58;7.20;;;;;;;20.91;100.00;99940.59;1632558;87;21029;-78
2021/07/06 00:39:23;;;;;;;15.00;7.20;;;;;;;20.88;100.00;99942.08;1632369;87;20890;-78
2021/07/06 00:41:49;;;;;;;13.28;7.17;;;;;;;20.88;100.00;99936.61;1632248;87;21129;-78
2021/07/06 00:44:21;;;;;;;14.07;7.25;;;;;;;20.86;100.00;99937.55;1632672;87;21108;-81
2021/07/06 00:46:47;;;;;;;15.23;7.03;;;;;;;20.86;100.00;99932.06;1632519;87;20995;-78
2021/07/06 00:49:14;;;;;;;19.20;7.53;;;;;;;20.85;100.00;99934.56;1632530;87;21021;-81
2021/07/06 00:51:40;;;;;;;15.32;7.10;;;;;;;20.85;100.00;99944.14;1632702;87;21565;-78
2021/07/06 00:54:07;;;;;;;11.65;7.03;;;;;;;20.83;100.00;99944.50;1632540;87;21046;-76
2021/07/06 00:56:34;;;;;;;16.00;7.37;;;;;;;20.82;100.00;99948.95;1632507;87;21077;-78
2021/07/06 00:59:00;;;;;;;20.50;7.67;;;;;;;20.81;100.00;99946.78;1632295;87;21004;-78
2021/07/06 01:01:26;;;;;;;10.15;6.62;;;;;;;20.82;100.00;99947.03;1632694;87;20933;-76
2021/07/06 01:03:53;;;;;;;15.38;7.25;;;;;;;20.82;100.00;99938.81;1632616;87;20843;-78
2021/07/06 01:06:18;;;;;;;13.45;6.80;;;;;;;20.83;100.00;99938.23;1667404;85;21055;-77
2021/07/06 01:08:45;;;;;;;19.52;7.62;;;;;;;20.84;100.00;99933.77;1689296;85;21153;-76
2021/07/06 01:11:14;;;;;;;20.88;7.20;;;;;;;20.85;100.00;99924.42;1689371;85;21016;-77
2021/07/06 01:13:40;;;;;;;17.67;7.35;;;;;;;20.84;100.00;99927.50;1689182;85;21035;-82
2021/07/06 01:16:06;;;;;;;12.03;6.80;;;;;;;20.85;100.00;99930.45;1689173;84;21067;-77
2021/07/06 01:18:32;;;;;;;14.07;6.80;;;;;;;20.84;100.00;99932.39;1689295;85;20975;-78
2021/07/06 01:20:59;;;;;;;16.27;7.03;;;;;;;20.85;100.00;99930.45;1689377;84;21093;-77
2021/07/06 01:23:30;;;;;;;13.80;7.08;;;;;;;20.85;100.00;99936.75;1669411;85;21027;-79
2021/07/06 01:26:00;;;;;;;14.45;7.05;;;;;;;20.86;100.00;99937.55;1688908;84;21024;-77
2021/07/06 01:28:26;;;;;;;12.43;7.10;;;;;;;20.85;100.00;99940.86;1689164;84;21067;-79
2021/07/06 01:30:52;;;;;;;14.75;6.60;;;;;;;20.85;100.00;99939.48;1689105;84;21012;-79
2021/07/06 01:33:23;;;;;;;13.70;6.87;;;;;;;20.86;100.00;99936.17;1689395;84;21918;-79
2021/07/06 01:35:52;;;;;;;11.73;7.00;;;;;;;20.85;100.00;99942.77;1689165;85;21012;-79
2021/07/06 01:38:18;;;;;;;16.35;6.90;;;;;;;20.85;100.00;99949.63;1663732;85;21102;-76
2021/07/06 01:40:44;;;;;;;13.18;6.97;;;;;;;20.84;100.00;99947.46;1663996;85;20995;-79
2021/07/06 01:43:10;;;;;;;16.55;6.85;;;;;;;20.84;100.00;99948.83;1664077;85;21150;-78
2021/07/06 01:45:36;;;;;;;12.20;6.70;;;;;;;20.84;100.00;99951.56;1664018;85;21136;-77
2021/07/06 01:48:04;;;;;;;11.78;6.03;;;;;;;20.84;100.00;99951.56;1663884;86;21072;-79
2021/07/06 01:50:40;;;;;;;13.85;6.47;;;;;;;20.85;100.00;99952.36;1663955;85;21596;-78
2021/07/06 01:53:16;;;;;;;13.03;6.47;;;;;;;20.84;100.00;99957.05;1663917;85;21067;-78
2021/07/06 01:55:48;;;;;;;12.25;6.67;;;;;;;20.83;100.00;99958.78;1641429;86;21101;-78
2021/07/06 01:58:17;;;;;;;12.73;7.03;;;;;;;20.82;100.00;99959.35;1664194;85;21085;-84
2021/07/06 02:00:57;;;;;;;16.00;6.58;;;;;;;20.85;100.00;99960.58;1663647;85;21032;-86
2021/07/06 02:03:23;;;;;;;13.43;7.00;;;;;;;20.86;100.00;99964.36;1663846;85;21107;-78
2021/07/06 02:05:58;;;;;;;17.25;6.80;;;;;;;20.87;100.00;99964.58;1663885;85;21619;-79
2021/07/06 02:08:26;;;;;;;14.30;6.30;;;;;;;20.90;100.00;99966.41;1663744;85;21048;-83
2021/07/06 02:10:55;;;;;;;14.10;6.50;;;;;;;20.93;100.00;99969.25;1663941;85;21291;-78
2021/07/06 02:13:25;;;;;;;15.72;7.70;;;;;;;20.96;100.00;99971.30;1663632;85;21555;-78
2021/07/06 02:15:54;;;;;;;10.60;6.58;;;;;;;21.01;100.00;99969.70;1640181;85;21029;-80
2021/07/06 02:18:22;;;;;;;10.80;6.12;;;;;;;21.04;100.00;99970.95;1661579;86;21044;-78
2021/07/06 02:20:52;;;;;;;12.35;6.53;;;;;;;21.09;100.00;99981.68;1661328;85;20992;-79
2021/07/06 02:23:19;;;;;;;14.43;6.60;;;;;;;21.13;100.00;99974.36;1661651;86;21139;-78
2021/07/06 02:25:46;;;;;;;11.38;5.85;;;;;;;21.17;100.00;99975.25;1661298;85;21148;-78
2021/07/06 02:28:13;;;;;;;13.00;6.72;;;;;;;21.21;100.00;99974.00;1661456;85;21071;-79
2021/07/06 02:30:39;;;;;;;11.80;6.97;;;;;;;21.23;100.00;99973.86;1661388;85;21091;-78
2021/07/06 02:33:05;;;;;;;13.15;7.00;;;;;;;21.26;100.00;99974.53;1661611;85;21119;-76
2021/07/06 02:35:31;;;;;;;11.63;6.20;;;;;;;21.29;100.00;99973.05;1677886;84;21613;-79
2021/07/06 02:38:02;;;;;;;14.10;6.55;;;;;;;21.28;100.00;99976.36;1686757;84;21555;-77
2021/07/06 02:40:29;;;;;;;17.37;6.47;;;;;;;21.27;100.00;99979.47;1667113;85;21062;-79
2021/07/06 02:42:57;;;;;;;14.50;6.30;;;;;;;21.28;100.00;99979.11;1686685;85;21051;-79
2021/07/06 02:45:24;;;;;;;13.32;6.53;;;;;;;21.27;100.00;99976.73;1686987;85;21796;-80
2021/07/06 02:47:50;;;;;;;12.20;6.65;;;;;;;21.28;100.00;99986.53;1686785;85;21962;-80
2021/07/06 02:50:19;;;;;;;13.18;6.97;;;;;;;21.29;100.00;99984.80;1686835;84;20905;-77
2021/07/06 02:52:46;;;;;;;13.88;6.80;;;;;;;21.33;100.00;99996.69;1686867;85;21025;-76
2021/07/06 02:55:13;;;;;;;12.90;7.05;;;;;;;21.36;100.00;99987.00;1686736;84;20992;-80
2021/07/06 02:57:39;;;;;;;15.70;7.10;;;;;;;21.38;100.00;99985.27;1686821;85;21067;-79
2021/07/06 03:00:25;;;;;;;15.90;6.50;;;;;;;21.36;100.00;99985.63;1683136;85;21205;-78
2021/07/06 03:02:55;;;;;;;16.82;7.40;;;;;;;21.43;100.00;99989.94;1650595;87;21027;-79
2021/07/06 03:05:25;;;;;;;18.35;6.60;;;;;;;21.49;100.00;99994.61;1650624;87;21078;-80
2021/07/06 03:07:53;;;;;;;19.55;8.08;;;;;;;21.53;100.00;100002.34;1650593;87;21058;-80
2021/07/06 03:10:23;;;;;;;16.17;7.65;;;;;;;21.54;100.00;100004.76;1650371;87;21423;-79
2021/07/06 03:12:50;;;;;;;14.03;7.70;;;;;;;21.57;100.00;100000.53;1650830;87;21730;-79
2021/07/06 03:15:19;;;;;;;10.93;6.95;;;;;;;21.62;100.00;99998.91;1649618;86;21152;-76
2021/07/06 03:17:46;;;;;;;14.30;7.28;;;;;;;21.65;100.00;100000.95;1646128;87;21551;-77
2021/07/06 03:20:16;;;;;;;18.25;7.65;;;;;;;21.70;100.00;100007.55;1646101;87;22567;-79
2021/07/06 03:22:42;;;;;;;13.35;7.47;;;;;;;21.76;100.00;99998.50;1645930;87;21666;-80
2021/07/06 03:25:12;;;;;;;12.93;7.72;;;;;;;21.84;100.00;99998.12;1646146;87;21090;-78
2021/07/06 03:27:39;;;;;;;15.60;7.47;;;;;;;21.86;100.00;100001.33;1646179;87;21605;-79
2021/07/06 03:30:10;;;;;;;11.78;7.55;;;;;;;21.86;100.00;99993.09;1624293;87;21079;-83
2021/07/06 03:32:36;;;;;;;17.30;7.37;;;;;;;21.87;100.00;100000.17;1619662;88;21077;-77
2021/07/06 03:35:05;;;;;;;13.22;7.17;;;;;;;21.87;100.00;99997.42;1619613;88;20997;-79
2021/07/06 03:37:32;;;;;;;14.65;7.50;;;;;;;21.89;100.00;100000.05;1619399;88;39959;-80
2021/07/06 03:39:58;;;;;;;14.80;7.78;;;;;;;21.95;100.00;100008.83;1623029;88;21067;-79
2021/07/06 03:42:24;;;;;;;15.68;8.05;;;;;;;21.98;100.00;100011.66;1624046;88;20981;-84
2021/07/06 03:44:49;;;;;;;15.45;7.72;;;;;;;21.99;100.00;100009.70;1624003;88;20976;-79
2021/07/06 03:47:15;;;;;;;13.88;7.92;;;;;;;22.06;100.00;100018.14;1624098;88;22018;-77
2021/07/06 03:49:41;;;;;;;15.45;7.72;;;;;;;22.07;100.00;100012.08;1623815;88;21085;-79
2021/07/06 03:52:07;;;;;;;15.20;8.40;;;;;;;22.05;100.00;100017.11;1623930;88;20976;-77
2021/07/06 03:54:33;;;;;;;12.75;7.72;;;;;;;22.05;100.00;100013.78;1623875;88;20944;-79
2021/07/06 03:57:00;;;;;;;16.02;7.60;;;;;;;22.06;100.00;100012.66;1623841;88;21630;-80
2021/07/06 03:59:29;;;;;;;16.77;8.58;;;;;;;22.12;100.00;100013.99;1633578;86;21246;-80
2021/07/06 04:01:55;;;;;;;16.50;8.10;;;;;;;22.17;100.00;100016.48;1635950;87;21143;-77
2021/07/06 04:04:21;;;;;;;14.10;7.85;;;;;;;22.15;100.00;100010.55;1635738;87;21067;-79
2021/07/06 04:06:47;;;;;;;15.70;7.70;;;;;;;22.18;100.00;100015.36;1636060;87;20952;-80
2021/07/06 04:09:14;;;;;;;16.15;8.35;;;;;;;22.21;100.00;100016.02;1636019;87;20944;-80
2021/07/06 04:11:40;;;;;;;17.85;9.13;;;;;;;22.23;100.00;100013.70;1636008;86;21548;-79
2021/07/06 04:14:07;;;;;;;18.05;8.60;;;;;;;22.21;100.00;100013.28;1636010;87;21114;-78
2021/07/06 04:16:33;;;;;;;17.50;8.25;;;;;;;22.21;100.00;100017.39;1613459;87;21035;-80
2021/07/06 04:18:59;;;;;;;13.60;7.87;;;;;;;22.25;100.00;100008.45;1597831;89;21097;-79
2021/07/06 04:21:25;;;;;;;16.85;8.73;;;;;;;22.30;100.00;100013.69;1598157;89;21046;-76
2021/07/06 04:23:51;;;;;;;15.98;9.25;;;;;;;22.31;100.00;100007.05;1598329;89;21058;-80
2021/07/06 04:26:17;;;;;;;15.43;9.00;;;;;;;22.44;100.00;100004.42;1598294;89;21005;-78
2021/07/06 04:28:42;;;;;;;16.15;9.05;;;;;;;22.55;100.00;99999.99;1613192;86;20961;-83
2021/07/06 04:31:08;;;;;;;15.13;8.80;;;;;;;22.71;100.00;100007.42;1668187;85;21670;-80
2021/07/06 04:33:34;;;;;;;15.98;8.85;;;;;;;22.86;100.00;100003.88;1668021;85;20902;-82
2021/07/06 04:36:00;;;;;;;13.13;8.15;;;;;;;23.09;100.00;99995.80;1668170;85;20985;-81
2021/07/06 04:38:26;;;;;;;14.20;7.58;;;;;;;23.32;100.00;99995.88;1668235;85;21791;-77
2021/07/06 04:40:52;;;;;;;15.53;8.45;;;;;;;23.71;100.00;99991.80;1667932;85;21702;-81
2021/07/06 04:43:18;;;;;;;14.45;8.18;;;;;;;23.96;100.00;99984.00;1668281;85;21008;-80
2021/07/06 04:45:44;;;;;;;17.07;7.92;;;;;;;24.13;100.00;99995.92;1668332;86;21392;-80
2021/07/06 04:48:10;;;;;;;12.98;7.60;;;;;;;24.08;100.00;99990.70;1668066;85;20921;-80
2021/07/06 04:50:38;;;;;;;15.43;9.08;;;;;;;24.02;100.00;100005.35;1668163;85;21097;-78
2021/07/06 04:53:05;;;;;;;13.15;8.10;;;;;;;24.03;100.00;100028.16;1639436;85;21118;-86
2021/07/06 04:55:32;;;;;;;18.92;9.00;;;;;;;24.26;100.00;100010.30;1667964;85;20997;-81
2021/07/06 04:57:58;;;;;;;17.10;7.78;;;;;;;24.34;100.00;99997.45;1668166;85;21083;-81
2021/07/06 05:00:24;;;;;;;10.72;7.20;;;;;;;24.42;100.00;99997.80;1668025;85;21014;-82
2021/07/06 05:02:50;;;;;;;14.40;6.97;;;;;;;24.34;100.00;100000.21;1668193;86;21177;-81
2021/07/06 05:05:16;;;;;;;12.88;7.40;;;;;;;24.19;100.00;100004.67;1668092;84;21003;-78
2021/07/06 05:07:42;;;;;;;12.40;7.50;;;;;;;24.07;100.00;100013.91;1668268;86;21502;-80
2021/07/06 05:10:12;;;;;;;14.47;7.62;;;;;;;23.93;100.00;100013.63;1668403;86;21092;-79
2021/07/06 05:12:39;;;;;;;13.58;8.43;;;;;;;23.85;100.00;100014.06;1668381;85;21032;-80
2021/07/06 05:15:07;;;;;;;15.28;8.25;;;;;;;23.70;100.00;100021.83;1668190;84;21135;-78
2021/07/06 05:17:34;;;;;;;16.37;9.45;;;;;;;23.58;100.00;100021.37;1664602;85;21037;-81
2021/07/06 05:20:01;;;;;;;17.65;8.83;;;;;;;23.61;100.00;100018.48;1668230;85;21147;-81
2021/07/06 05:22:28;;;;;;;17.20;8.93;;;;;;;23.51;100.00;100028.91;1639773;86;21126;-82
2021/07/06 05:24:54;;;;;;;16.65;8.60;;;;;;;23.40;100.00;100021.00;1668185;85;21111;-81
2021/07/06 05:27:19;;;;;;;19.37;9.08;;;;;;;23.30;100.00;100028.45;1668435;85;21081;-81
2021/07/06 05:29:45;;;;;;;14.45;8.33;;;;;;;23.19;100.00;100031.54;1668045;85;20972;-78
2021/07/06 05:32:13;;;;;;;16.87;8.40;;;;;;;23.11;100.00;100038.23;1664096;86;20996;-81
2021/07/06 05:34:38;;;;;;;14.83;7.78;;;;;;;23.04;100.00;100031.21;1639525;85;21650;-80
2021/07/06 05:37:04;;;;;;;12.30;7.78;;;;;;;23.03;100.00;100031.00;1668303;85;20874;-85
2021/07/06 05:39:30;;;;;;;14.03;8.20;;;;;;;23.04;100.00;100033.96;1639665;86;20991;-80
2021/07/06 05:41:57;;;;;;;17.10;8.30;;;;;;;23.15;100.00;100034.77;1668281;85;20893;-77
2021/07/06 05:44:24;;;;;;;11.38;7.87;;;;;;;23.28;100.00;100037.63;1661656;84;21025;-80
2021/07/06 05:46:50;;;;;;;12.90;7.25;;;;;;;23.57;100.00;100032.95;1639639;86;21516;-81
2021/07/06 05:49:15;;;;;;;15.75;7.72;;;;;;;23.87;100.00;100038.48;1668287;85;21049;-81
2021/07/06 05:51:41;;;;;;;11.85;7.28;;;;;;;24.14;100.00;100031.13;1668201;85;21697;-80
2021/07/06 05:54:08;;;;;;;13.98;7.62;;;;;;;24.57;100.00;100034.09;1668179;85;20913;-79
2021/07/06 05:56:34;;;;;;;17.85;8.05;;;;;;;24.91;100.00;100036.97;1668290;85;21020;-82
2021/07/06 05:59:02;;;;;;;12.15;7.08;;;;;;;25.12;100.00;100037.31;1668195;86;21502;-81
2021/07/06 06:01:31;;;;;;;12.10;7.22;;;;;;;25.98;100.00;100048.70;1592805;89;21093;-80
2021/07/06 06:03:56;;;;;;;12.13;7.00;;;;;;;26.54;100.00;100037.24;1582899;90;21597;-79
2021/07/06 06:06:22;;;;;;;7.90;6.20;;;;;;;27.37;100.00;100027.75;1586260;88;21025;-81
2021/07/06 06:08:48;;;;;;;11.53;6.00;;;;;;;28.39;100.00;100029.06;1586543;89;21103;-83
2021/07/06 06:11:13;;;;;;;9.65;6.33;;;;;;;29.17;100.00;100033.01;1586312;88;20879;-85
2021/07/06 06:13:39;;;;;;;10.95;7.00;;;;;;;29.33;100.00;100038.14;1585835;88;21029;-82
2021/07/06 06:16:07;;;;;;;14.87;7.75;;;;;;;28.50;100.00;100033.23;1591513;88;21173;-81
2021/07/06 06:18:33;;;;;;;10.78;6.97;;;;;;;27.93;100.00;100030.37;1612211;89;21101;-81
2021/07/06 06:20:59;;;;;;;13.38;7.72;;;;;;;27.35;100.00;100034.84;1612482;89;21070;-82
2021/07/06 06:23:25;;;;;;;10.68;7.25;;;;;;;26.73;100.00;100042.52;1612693;89;21204;-79
2021/07/06 06:25:52;;;;;;;14.03;7.72;;;;;;;26.20;100.00;100055.23;1610359;88;20927;-82
2021/07/06 06:28:17;;;;;;;14.55;7.75;;;;;;;26.02;100.00;100061.95;1609763;89;21118;-76
2021/07/06 06:30:43;;;;;;;16.35;8.05;;;;;;;25.86;100.00;100065.53;1609624;89;21011;-80
2021/07/06 06:33:09;;;;;;;10.70;6.80;;;;;;;25.74;100.00;100061.02;1609836;89;21022;-76
2021/07/06 06:35:35;;;;;;;12.63;6.92;;;;;;;25.83;100.00;100055.44;1609581;89;21091;-76
2021/07/06 06:38:01;;;;;;;11.75;6.60;;;;;;;26.02;100.00;100060.57;1609668;87;21039;-77
2021/07/06 06:40:27;;;;;;;10.45;5.80;;;;;;;26.75;100.00;100051.83;1609518;87;21110;-80
2021/07/06 06:42:52;;;;;;;8.45;6.20;;;;;;;27.26;100.00;100056.55;1609433;89;21009;-77
2021/07/06 06:45:19;;;;;;;8.20;5.78;;;;;;;27.37;100.00;100056.80;1606026;89;20895;-80
2021/07/06 06:47:45;;;;;;;10.88;6.30;;;;;;;27.17;100.00;100060.44;1609642;89;21431;-76
2021/07/06 06:50:13;;;;;;;12.40;6.03;;;;;;;26.93;100.00;100064.59;1609749;89;20946;-76
2021/07/06 06:52:39;;;;;;;11.68;6.33;;;;;;;26.69;100.00;100065.99;1609693;87;21129;-75
2021/07/06 06:55:07;;;;;;;16.17;7.15;;;;;;;26.49;100.00;100065.42;1609420;89;20930;-75
2021/07/06 06:57:33;;;;;;;7.78;5.97;;;;;;;26.52;100.00;100061.10;1611880;88;21074;-75
2021/07/06 06:59:59;;;;;;;13.30;7.00;;;;;;;26.46;100.00;100065.36;1624153;87;20935;-75
2021/07/06 07:02:30;;;;;;;11.35;6.20;;;;;;;26.25;100.00;100077.79;1630635;88;20903;-82
2021/07/06 07:04:57;;;;;;;10.55;5.65;;;;;;;26.17;100.00;100065.66;1630723;88;21196;-73
2021/07/06 07:07:24;;;;;;;9.88;5.53;;;;;;;26.33;100.00;100066.83;1657842;84;21479;-75
2021/07/06 07:09:50;;;;;;;6.62;5.10;;;;;;;26.41;100.00;100073.98;1663216;84;21002;-75
2021/07/06 07:12:18;;;;;;;9.33;5.22;;;;;;;26.13;100.00;100079.44;1685713;84;20999;-75
2021/07/06 07:14:44;;;;;;;8.40;5.10;;;;;;;26.02;100.00;100082.66;1681352;85;20963;-79
2021/07/06 07:17:11;;;;;;;8.25;5.22;;;;;;;25.92;100.00;100080.59;1676005;85;21115;-75
2021/07/06 07:19:37;;;;;;;6.87;4.72;;;;;;;25.86;100.00;100090.38;1671392;85;20992;-76
2021/07/06 07:22:05;;;;;;;6.92;4.55;;;;;;;25.74;100.00;100090.80;1671195;85;21539;-75
2021/07/06 07:24:32;;;;;;;9.78;4.42;;;;;;;25.63;100.00;100085.72;1671732;85;21169;-76
2021/07/06 07:26:59;;;;;;;8.23;4.83;;;;;;;25.64;100.00;100088.67;1671592;85;20967;-75
2021/07/06 07:29:25;;;;;;;11.03;4.58;;;;;;;25.73;100.00;100089.19;1668124;85;21528;-76
2021/07/06 07:31:53;;;;;;;18.17;4.65;;;;;;;25.90;100.00;100092.58;1652051;85;21060;-77
2021/07/06 07:34:19;;;;;;;8.88;3.90;;;;;;;26.28;100.00;100090.05;1671692;85;21028;-76
2021/07/06 07:36:46;;;;;;;7.45;3.90;;;;;;;26.33;100.00;100094.45;1671406;85;21011;-81
2021/07/06 07:39:13;;;;;;;7.05;4.20;;;;;;;26.36;100.00;100088.96;1671504;85;21107;-76
2021/07/06 07:41:39;;;;;;;5.75;3.62;;;;;;;26.65;100.00;100092.00;1671523;85;21893;-76
2021/07/06 07:44:05;;;;;;;5.22;3.52;;;;;;;27.24;100.00;100090.71;1671500;85;20954;-80
2021/07/06 07:46:31;;;;;;;11.48;4.17;;;;;;;27.54;100.00;100091.30;1671538;85;21090;-77
2021/07/06 07:48:58;;;;;;;8.23;3.37;;;;;;;27.98;100.00;100096.47;1671476;85;20921;-76
2021/07/06 07:51:25;;;;;;;8.85;4.28;;;;;;;28.84;100.00;100098.82;1667901;85;21019;-74
2021/07/06 07:53:51;;;;;;;7.67;4.20;;;;;;;29.04;100.00;100107.57;1671473;85;21179;-76
2021/07/06 07:56:17;;;;;;;5.45;3.72;;;;;;;29.07;100.00;100097.66;1671318;85;20971;-74
2021/07/06 07:58:42;;;;;;;9.00;3.90;;;;;;;29.03;100.00;100099.03;1671516;85;20920;-76
2021/07/06 08:01:08;;;;;;;7.85;3.67;;;;;;;29.08;100.00;100111.72;1671271;85;20892;-75
2021/07/06 08:03:34;;;;;;;6.62;3.72;;;;;;;28.91;100.00;100102.97;1671801;85;21728;-80
2021/07/06 08:06:01;;;;;;;7.62;4.12;;;;;;;28.56;100.00;100105.73;1671409;85;20931;-76
2021/07/06 08:08:27;;;;;;;7.97;3.95;;;;;;;28.42;100.00;100111.47;1671592;85;21112;-74
2021/07/06 08:10:56;;;;;;;9.90;5.10;;;;;;;28.55;100.00;100111.09;1671527;85;21571;-75
2021/07/06 08:13:24;;;;;;;10.35;4.37;;;;;;;28.14;100.00;100119.67;1671167;85;21012;-76
2021/07/06 08:15:51;;;;;;;7.80;4.97;;;;;;;27.99;100.00;100122.98;1671546;85;21071;-77
2021/07/06 08:18:19;;;;;;;10.15;5.60;;;;;;;27.81;100.00;100120.93;1668903;85;21079;-80
2021/07/06 08:20:47;;;;;;;7.40;5.20;;;;;;;27.71;100.00;100120.84;1668970;86;21082;-78
2021/07/06 08:23:13;;;;;;;10.03;4.62;;;;;;;28.77;100.00;100109.92;1669010;86;21016;-77
2021/07/06 08:25:39;;;;;;;17.85;4.78;;;;;;;28.91;100.00;100118.23;1659529;84;21015;-78
2021/07/06 08:28:05;;;;;;;6.40;4.35;;;;;;;28.71;100.00;100118.45;1674601;84;21520;-75
2021/07/06 08:30:32;;;;;;;7.85;5.15;;;;;;;28.54;100.00;100117.23;1667724;85;21176;-76
2021/07/06 08:32:58;;;;;;;7.97;4.78;;;;;;;28.49;100.00;100117.02;1684275;85;21504;-77
2021/07/06 08:35:24;;;;;;;8.93;4.60;;;;;;;28.64;100.00;100123.97;1684485;84;21055;-76
2021/07/06 08:37:50;;;;;;;10.53;5.45;;;;;;;28.67;100.00;100121.19;1684492;84;21522;-76
2021/07/06 08:40:16;;;;;;;9.15;5.05;;;;;;;28.81;100.00;100120.42;1663420;83;20905;-78
2021/07/06 08:42:43;;;;;;;12.23;5.53;;;;;;;29.22;100.00;100113.70;1660116;84;21139;-76
2021/07/06 08:45:11;;;;;;;9.95;5.08;;;;;;;29.13;100.00;100120.44;1659072;85;21562;-75
2021/07/06 08:47:38;;;;;;;11.33;5.55;;;;;;;29.85;100.00;100119.69;1665607;84;21063;-73
2021/07/06 08:50:08;;;;;;;10.43;5.58;;;;;;;30.17;100.00;100117.36;1661793;86;21050;-81
2021/07/06 08:52:40;;;;;;;11.22;5.47;;;;;;;30.78;100.00;100121.98;1667073;84;21536;-76
2021/07/06 08:55:07;;;;;;;6.87;5.35;;;;;;;31.26;100.00;100122.37;1682122;85;21083;-76
2021/07/06 08:57:32;;;;;;;9.23;5.47;;;;;;;31.55;90.57;100144.58;1684680;84;21032;-76
2021/07/06 08:59:58;;;;;;;6.83;5.28;;;;;;;31.44;89.65;100136.93;1684570;84;20884;-74
2021/07/06 09:02:24;;;;;;;6.92;4.72;;;;;;;31.36;84.96;100120.12;1680619;85;21447;-77
2021/07/06 09:04:53;;;;;;;12.25;5.45;;;;;;;31.51;86.43;100124.34;1684713;85;20881;-77
2021/07/06 09:09:51;;;;;;;7.70;4.87;;;;;;;30.96;92.87;100121.05;1545905;92;21050;-76
2021/07/06 09:12:19;;;;;;;17.17;4.85;;;;;;;31.37;92.22;100116.13;1528198;93;21170;-75
2021/07/06 09:14:49;;;;;;;8.78;4.83;;;;;;;31.58;89.49;100120.67;1528147;93;21136;-77
2021/07/06 09:17:20;;;;;;;7.37;4.28;;;;;;;31.18;90.38;100132.80;1528565;93;21093;-82
2021/07/06 09:19:49;;;;;;;7.12;4.62;;;;;;;31.38;94.56;100110.73;1480173;95;21123;-75
2021/07/06 09:22:30;;;;;;;12.20;4.47;;;;;;;31.82;91.21;100120.19;1480036;97;21052;-82
2021/07/06 09:25:10;;;;;;;9.38;5.03;;;;;;;31.35;91.09;100117.92;1480096;95;21088;-76
2021/07/06 09:27:39;;;;;;;5.25;4.10;;;;;;;31.10;89.86;100127.11;1449119;98;21185;-73
2021/07/06 09:30:19;;;;;;;5.83;4.58;;;;;;;30.91;92.73;100121.48;1449123;99;21097;-81
2021/07/06 09:32:56;;;;;;;5.87;4.40;;;;;;;30.85;94.55;100128.70;1441213;98;21231;-79
2021/07/06 09:35:31;;;;;;;10.43;4.97;;;;;;;30.84;96.10;100128.52;1432633;98;21149;-78
2021/07/06 09:38:01;;;;;;;7.33;4.72;;;;;;;30.48;100.00;100124.58;1436682;98;21573;-76
2021/07/06 09:40:37;;;;;;;7.35;4.72;;;;;;;30.44;98.94;100121.02;1432746;97;21151;-81
2021/07/06 09:43:26;;;;;;;8.05;4.60;;;;;;;30.43;99.93;100123.61;1441078;98;21247;-79
2021/07/06 09:46:09;;;;;;;11.00;5.05;;;;;;;30.21;97.98;100132.08;1449006;99;21208;-78
2021/07/06 09:48:44;;;;;;;6.47;4.75;;;;;;;30.15;100.00;100130.89;1448861;99;21077;-83
2021/07/06 09:53:55;;;;;;;10.72;5.00;;;;;;;29.68;100.00;100136.42;1394139;102;21184;-76
2021/07/06 09:56:24;;;;;;;7.00;4.75;;;;;;;29.27;100.00;100146.02;1393514;103;21201;-80
2021/07/06 09:59:05;;;;;;;9.38;5.33;;;;;;;28.90;100.00;100144.39;1393530;103;21200;-76
2021/07/06 10:01:32;;;;;;;8.88;4.97;;;;;;;28.66;100.00;100139.63;1393148;103;21191;-76
2021/07/06 10:04:02;;;;;;;9.93;4.75;;;;;;;28.50;100.00;100162.16;1395235;102;21241;-76
2021/07/06 10:06:30;;;;;;;8.58;4.58;;;;;;;28.05;100.00;100143.58;1434925;96;21640;-76
2021/07/06 10:08:57;;;;;;;7.72;4.50;;;;;;;27.90;100.00;100157.97;1506001;92;21094;-76
2021/07/06 10:11:24;;;;;;;8.85;5.28;;;;;;;27.63;100.00;100154.03;1551830;92;21991;-75
2021/07/06 10:13:51;;;;;;;9.58;4.60;;;;;;;27.57;100.00;100163.89;1551856;92;21685;-75
2021/07/06 10:16:18;;;;;;;7.00;4.17;;;;;;;27.58;100.00;100154.39;1548468;92;21152;-74
2021/07/06 10:18:45;;;;;;;6.65;4.40;;;;;;;27.87;100.00;100161.52;1560686;91;21040;-82
2021/07/06 10:21:12;;;;;;;8.73;4.22;;;;;;;28.19;100.00;100160.87;1562727;91;21001;-76
2021/07/06 10:23:42;;;;;;;9.70;4.20;;;;;;;27.92;100.00;100159.77;1604434;86;22360;-75
2021/07/06 10:26:11;;;;;;;10.53;4.40;;;;;;;27.73;100.00;100176.63;1594708;89;21042;-75
2021/07/06 10:28:38;;;;;;;8.18;4.30;;;;;;;27.67;100.00;100176.80;1615485;88;21099;-73
2021/07/06 10:31:17;;;;;;;6.83;4.17;;;;;;;27.77;100.00;100176.08;1617728;88;21055;-76
2021/07/06 10:33:48;;;;;;;10.03;4.35;;;;;;;27.88;100.00;100179.71;1584925;90;21038;-76
2021/07/06 10:36:16;;;;;;;9.40;4.83;;;;;;;27.88;100.00;100181.09;1564405;90;21181;-77
2021/07/06 10:38:50;;;;;;;11.53;4.55;;;;;;;27.93;100.00;100189.05;1584699;90;21100;-76
2021/07/06 10:41:21;;;;;;;8.88;3.98;;;;;;;28.00;100.00;100180.78;1530573;93;21099;-76
2021/07/06 10:43:51;;;;;;;5.47;4.03;;;;;;;28.08;100.00;100181.59;1530551;93;21101;-76
2021/07/06 10:46:32;;;;;;;14.68;4.37;;;;;;;28.03;100.00;100196.63;1530432;93;21091;-75
2021/07/06 10:49:07;;;;;;;8.93;4.45;;;;;;;27.98;100.00;100198.38;1530138;93;21142;-80
2021/07/06 10:51:41;;;;;;;14.40;4.12;;;;;;;27.95;100.00;100190.84;1551949;92;21077;-76
2021/07/06 10:54:18;;;;;;;7.37;4.03;;;;;;;28.06;100.00;100183.38;1557438;91;21219;-82
2021/07/06 10:56:51;;;;;;;5.17;3.33;;;;;;;28.48;100.00;100164.55;1557171;92;21107;-75
2021/07/06 10:59:23;;;;;;;9.03;3.80;;;;;;;28.49;100.00;100168.30;1509926;94;21158;-80
2021/07/06 11:01:57;;;;;;;5.70;4.08;;;;;;;28.41;100.00;100181.12;1489546;94;21121;-77
2021/07/06 11:04:43;;;;;;;5.42;3.65;;;;;;;28.34;100.00;100183.88;1481744;96;28930;-78
2021/07/06 11:07:39;;;;;;;9.18;4.10;;;;;;;28.13;100.00;100187.37;1481741;96;21142;-82
2021/07/06 11:10:08;;;;;;;10.58;4.10;;;;;;;27.88;100.00;100200.48;1481943;96;21082;-78
2021/07/06 11:12:44;;;;;;;7.83;4.33;;;;;;;27.85;100.00;100207.62;1482168;96;21136;-78
2021/07/06 11:18:06;;;;;;;10.95;4.40;;;;;;;27.85;100.00;100193.77;1410174;99;21150;-79
2021/07/06 11:20:39;;;;;;;8.43;3.98;;;;;;;27.63;100.00;100211.39;1384390;101;21120;-78
2021/07/06 11:23:22;;;;;;;13.60;4.05;;;;;;;27.43;100.00;100204.52;1363593;103;21094;-78
2021/07/06 11:25:48;;;;;;;12.63;4.05;;;;;;;27.33;100.00;100212.36;1345761;105;21162;-79